Time;durP1;ratioP1;P1;durP2;ratioP2;P2;SDS_P1;SDS_P2;PMS_P1;PMS_P2;Temp;Humidity;BMP_temperature;BMP_pressure;BME280_temperature;BME280_humidity;BME280_pressure;Samples;Min_cycle;Max_cycle;Signal;HPM_P1;HPM_P2
2021/11/11 00:00:22;;;;;;;11.32;8.27;;;18.90;46.30;;;;;;5081524;28;20044;-49
2021/11/11 00:02:53;;;;;;;8.57;7.18;;;18.90;46.20;;;;;;5076108;28;20082;-48
2021/11/11 00:05:20;;;;;;;10.65;7.57;;;18.80;46.30;;;;;;5071716;28;20286;-48
2021/11/11 00:07:48;;;;;;;8.82;7.63;;;18.80;46.40;;;;;;5061232;28;20127;-49
2021/11/11 00:10:17;;;;;;;21.02;10.85;;;18.80;46.50;;;;;;5071090;28;20040;-49
2021/11/11 00:12:45;;;;;;;9.27;7.78;;;18.80;47.50;;;;;;5068592;28;20582;-53
2021/11/11 00:15:14;;;;;;;19.42;7.88;;;18.80;47.70;;;;;;5074340;28;20048;-52
2021/11/11 00:17:43;;;;;;;13.82;8.48;;;18.80;47.40;;;;;;5071977;28;20040;-48
2021/11/11 00:20:12;;;;;;;17.35;8.20;;;18.80;47.30;;;;;;5073058;28;20508;-62
2021/11/11 00:22:41;;;;;;;11.43;7.30;;;18.80;47.40;;;;;;5077942;28;20043;-62
2021/11/11 00:25:12;;;;;;;18.42;9.07;;;18.80;47.60;;;;;;5070170;28;20082;-61
2021/11/11 00:27:41;;;;;;;9.95;7.10;;;18.80;47.80;;;;;;5066547;28;20040;-62
2021/11/11 00:30:10;;;;;;;10.63;7.03;;;18.80;47.90;;;;;;5084403;28;20099;-62
2021/11/11 00:32:39;;;;;;;14.02;8.60;;;18.70;48.00;;;;;;5074250;28;20554;-63
2021/11/11 00:35:07;;;;;;;16.50;7.95;;;18.70;47.80;;;;;;5069254;28;20044;-62
2021/11/11 00:37:34;;;;;;;14.25;7.65;;;18.70;48.10;;;;;;5062053;28;20045;-62
2021/11/11 00:40:01;;;;;;;13.15;6.95;;;18.70;48.10;;;;;;5077244;28;20049;-62
2021/11/11 00:42:31;;;;;;;9.38;7.72;;;18.70;48.20;;;;;;5069774;28;20096;-61
2021/11/11 00:44:58;;;;;;;14.80;7.97;;;18.60;48.20;;;;;;5073465;28;20057;-61
2021/11/11 00:47:25;;;;;;;9.82;7.25;;;18.60;48.40;;;;;;5070089;28;20094;-62
2021/11/11 00:49:52;;;;;;;8.65;6.40;;;18.60;48.30;;;;;;5065270;28;20064;-61
2021/11/11 00:52:19;;;;;;;11.32;7.28;;;18.60;48.30;;;;;;5066752;28;20037;-61
2021/11/11 00:54:47;;;;;;;11.05;7.60;;;18.60;48.50;;;;;;5068962;28;20044;-62
2021/11/11 00:57:27;;;;;;;13.52;6.93;;;18.60;48.60;;;;;;5064666;28;20045;-62
2021/11/11 00:59:56;;;;;;;8.60;6.10;;;18.50;48.60;;;;;;5081692;28;20585;-61
2021/11/11 01:02:24;;;;;;;11.68;7.85;;;18.50;48.60;;;;;;5083987;28;20043;-62
2021/11/11 01:04:51;;;;;;;8.38;6.28;;;18.50;48.60;;;;;;5062233;28;20484;-61
2021/11/11 01:07:20;;;;;;;8.82;6.97;;;18.50;48.60;;;;;;5070184;28;20055;-61
2021/11/11 01:09:47;;;;;;;10.82;6.57;;;18.50;48.60;;;;;;5078110;28;20068;-61
2021/11/11 01:12:14;;;;;;;9.75;7.45;;;18.40;48.50;;;;;;5080099;28;20044;-62
2021/11/11 01:14:41;;;;;;;10.95;7.75;;;18.40;48.40;;;;;;5094285;28;20040;-62
2021/11/11 01:17:09;;;;;;;10.32;7.38;;;18.40;48.50;;;;;;5073284;28;20036;-61
2021/11/11 01:19:37;;;;;;;7.93;6.95;;;18.40;48.40;;;;;;5073681;28;20505;-62
2021/11/11 01:22:05;;;;;;;10.07;7.95;;;18.40;48.50;;;;;;5077133;28;20044;-62
2021/11/11 01:24:32;;;;;;;11.15;7.68;;;18.40;48.50;;;;;;5078684;28;20045;-61
2021/11/11 01:26:59;;;;;;;8.70;7.05;;;18.40;48.60;;;;;;5082171;28;20511;-62
2021/11/11 01:29:27;;;;;;;10.40;7.82;;;18.40;48.50;;;;;;5080676;28;20040;-63
2021/11/11 01:31:54;;;;;;;13.95;7.65;;;18.40;48.40;;;;;;5077869;28;20097;-62
2021/11/11 01:34:26;;;;;;;8.93;7.55;;;18.40;48.70;;;;;;5079800;28;20040;-61
2021/11/11 01:36:59;;;;;;;8.10;6.38;;;18.40;48.60;;;;;;5074829;28;20110;-62
2021/11/11 01:39:27;;;;;;;8.45;7.13;;;18.30;48.50;;;;;;5077363;28;20043;-61
2021/11/11 01:42:00;;;;;;;8.75;7.05;;;18.30;48.50;;;;;;5064237;28;20853;-61
2021/11/11 01:44:27;;;;;;;8.70;6.80;;;18.30;48.40;;;;;;5087039;28;20047;-60
2021/11/11 01:46:55;;;;;;;14.02;9.15;;;18.30;48.40;;;;;;5072406;28;20080;-61
2021/11/11 01:49:26;;;;;;;7.80;7.03;;;18.30;48.40;;;;;;5075397;28;20155;-61
2021/11/11 01:51:54;;;;;;;7.75;6.82;;;18.30;48.40;;;;;;5070104;28;20051;-61
2021/11/11 01:54:22;;;;;;;11.52;7.93;;;18.30;49.10;;;;;;5079524;28;20059;-61
2021/11/11 01:56:56;;;;;;;8.48;6.85;;;18.30;48.60;;;;;;5073291;28;20125;-61
2021/11/11 01:59:31;;;;;;;10.43;7.50;;;18.30;48.60;;;;;;5060097;28;20051;-62
2021/11/11 02:02:02;;;;;;;9.57;7.75;;;18.30;48.80;;;;;;5071038;28;20048;-61
2021/11/11 02:04:39;;;;;;;10.80;7.70;;;18.30;48.80;;;;;;5070956;28;20456;-61
2021/11/11 02:07:07;;;;;;;8.07;7.00;;;18.20;48.80;;;;;;5072357;28;20052;-60
2021/11/11 02:09:40;;;;;;;9.82;7.35;;;18.20;48.80;;;;;;5074895;28;20044;-63
2021/11/11 02:12:11;;;;;;;11.23;7.15;;;18.20;48.90;;;;;;5073640;28;20063;-63
2021/11/11 02:14:41;;;;;;;11.15;7.55;;;18.20;49.00;;;;;;5067706;28;20040;-63
2021/11/11 02:17:12;;;;;;;9.65;8.13;;;18.20;49.10;;;;;;5073202;28;20507;-62
2021/11/11 02:19:59;;;;;;;7.63;6.83;;;18.20;49.20;;;;;;5075484;28;20504;-62
2021/11/11 02:22:31;;;;;;;9.07;7.18;;;18.20;49.20;;;;;;5075913;28;20743;-62
2021/11/11 02:25:01;;;;;;;12.65;7.20;;;18.20;49.20;;;;;;5079218;28;20061;-63
2021/11/11 02:27:28;;;;;;;11.27;8.32;;;18.20;49.30;;;;;;5075212;28;20072;-62
2021/11/11 02:29:55;;;;;;;11.30;9.38;;;18.20;49.10;;;;;;5076582;28;20072;-61
2021/11/11 02:32:29;;;;;;;8.27;6.78;;;18.20;49.10;;;;;;5077368;28;20048;-62
2021/11/11 02:34:59;;;;;;;10.40;7.45;;;18.20;49.10;;;;;;5075201;28;20044;-61
2021/11/11 02:37:30;;;;;;;8.70;6.70;;;18.20;49.00;;;;;;5070319;28;20127;-62
2021/11/11 02:40:08;;;;;;;9.55;7.00;;;18.20;49.20;;;;;;5057778;28;20185;-61
2021/11/11 02:42:43;;;;;;;7.97;7.22;;;18.20;49.10;;;;;;5079865;28;20091;-63
2021/11/11 02:45:20;;;;;;;10.48;8.27;;;18.10;49.10;;;;;;5074950;28;20566;-62
2021/11/11 02:47:51;;;;;;;11.57;7.07;;;18.20;49.20;;;;;;5066849;28;20066;-61
2021/11/11 02:50:25;;;;;;;10.93;7.47;;;18.10;49.20;;;;;;5077700;28;20067;-61
2021/11/11 02:52:53;;;;;;;8.65;7.22;;;18.10;49.20;;;;;;5071821;28;20063;-61
2021/11/11 02:55:22;;;;;;;10.05;7.15;;;18.10;49.00;;;;;;5076101;28;20040;-63
2021/11/11 02:57:52;;;;;;;8.88;7.75;;;18.10;49.00;;;;;;5074930;28;20090;-64
2021/11/11 03:00:22;;;;;;;13.82;6.85;;;18.10;49.00;;;;;;5069072;28;20044;-64
2021/11/11 03:02:52;;;;;;;9.73;6.80;;;18.10;49.10;;;;;;5078240;28;20047;-64
2021/11/11 03:05:30;;;;;;;10.20;7.93;;;18.10;49.10;;;;;;5074579;28;20044;-63
2021/11/11 03:08:00;;;;;;;9.73;6.53;;;18.10;49.20;;;;;;5074904;28;20051;-62
2021/11/11 03:10:31;;;;;;;11.20;6.75;;;18.10;49.30;;;;;;5071870;28;20169;-61
2021/11/11 03:13:01;;;;;;;10.13;6.78;;;18.10;49.40;;;;;;5066434;28;20041;-63
2021/11/11 03:15:31;;;;;;;9.48;6.45;;;18.10;49.40;;;;;;5075412;28;20087;-63
2021/11/11 03:17:59;;;;;;;9.10;8.02;;;18.10;49.50;;;;;;5080654;28;20068;-62
2021/11/11 03:20:28;;;;;;;7.72;6.93;;;18.10;49.40;;;;;;5077456;28;20085;-63
2021/11/11 03:22:55;;;;;;;12.05;7.47;;;18.10;49.30;;;;;;5077032;28;20063;-63
2021/11/11 03:25:28;;;;;;;11.40;7.80;;;18.10;49.30;;;;;;5074321;28;20041;-63
2021/11/11 03:27:55;;;;;;;11.32;7.45;;;18.10;49.30;;;;;;5076547;28;20040;-63
2021/11/11 03:30:28;;;;;;;10.85;6.53;;;18.10;49.20;;;;;;5069747;28;20549;-63
2021/11/11 03:32:56;;;;;;;8.48;6.93;;;18.10;49.20;;;;;;5080203;28;20070;-63
2021/11/11 03:35:28;;;;;;;10.20;7.38;;;18.00;49.10;;;;;;5074408;28;20922;-64
2021/11/11 03:37:58;;;;;;;9.88;6.53;;;18.00;49.00;;;;;;5068040;28;20040;-62
2021/11/11 03:40:29;;;;;;;8.32;7.13;;;18.00;49.20;;;;;;5076176;28;20052;-62
2021/11/11 03:42:58;;;;;;;9.70;8.07;;;18.10;49.00;;;;;;5078919;28;20094;-62
2021/11/11 03:45:31;;;;;;;9.30;7.18;;;18.00;49.10;;;;;;5081392;28;20037;-62
2021/11/11 03:47:58;;;;;;;9.88;8.20;;;18.00;49.00;;;;;;5076875;28;20512;-63
2021/11/11 03:50:28;;;;;;;8.20;6.97;;;18.00;49.10;;;;;;5076793;28;20127;-62
2021/11/11 03:52:56;;;;;;;7.82;6.40;;;18.00;49.10;;;;;;5073464;28;20479;-62
2021/11/11 03:55:25;;;;;;;9.50;7.63;;;18.00;49.20;;;;;;5066653;28;20033;-62
2021/11/11 03:57:55;;;;;;;9.48;6.68;;;18.00;49.00;;;;;;5070121;28;20056;-62
2021/11/11 04:00:25;;;;;;;8.05;6.35;;;18.00;49.00;;;;;;5067229;28;20037;-63
2021/11/11 04:02:57;;;;;;;9.73;7.22;;;18.00;49.10;;;;;;5080025;28;20048;-62
2021/11/11 04:05:24;;;;;;;8.48;7.30;;;18.00;49.10;;;;;;5078009;28;20066;-62
2021/11/11 04:07:57;;;;;;;10.73;7.90;;;18.00;49.20;;;;;;5083755;28;20044;-62
2021/11/11 04:10:24;;;;;;;7.07;6.38;;;18.00;49.20;;;;;;5072077;28;20094;-62
2021/11/11 04:12:57;;;;;;;7.72;6.90;;;18.00;49.10;;;;;;5080231;28;20146;-62
2021/11/11 04:15:24;;;;;;;6.75;5.90;;;18.00;49.10;;;;;;5062114;28;20064;-62
2021/11/11 04:17:51;;;;;;;8.75;6.47;;;18.00;49.00;;;;;;5065515;28;20139;-62
2021/11/11 04:20:18;;;;;;;7.07;6.03;;;18.00;48.90;;;;;;5072839;28;20036;-61
2021/11/11 04:22:45;;;;;;;7.70;6.90;;;17.90;48.90;;;;;;5078901;28;20047;-61
2021/11/11 04:25:21;;;;;;;7.47;6.68;;;17.90;49.00;;;;;;5073477;28;20060;-61
2021/11/11 04:27:52;;;;;;;8.50;7.68;;;18.00;49.10;;;;;;5060614;28;20035;-61
2021/11/11 04:30:26;;;;;;;9.65;6.97;;;17.90;49.10;;;;;;5076860;28;20122;-61
2021/11/11 04:32:54;;;;;;;8.07;7.10;;;17.90;49.10;;;;;;5077870;28;20587;-62
2021/11/11 04:35:21;;;;;;;9.27;6.68;;;17.90;49.10;;;;;;5077717;28;20425;-62
2021/11/11 04:37:57;;;;;;;9.18;5.97;;;17.90;49.00;;;;;;5073683;28;20052;-62
2021/11/11 04:46:24;;;;;;;7.65;6.38;;;17.90;49.10;;;;;;5072826;28;20036;-61
2021/11/11 05:00:06;;;;;;;8.60;4.72;;;17.80;49.10;;;;;;5085083;28;20048;-60
2021/11/11 05:02:57;;;;;;;5.93;5.15;;;17.80;49.00;;;;;;5088296;28;20076;-60
2021/11/11 05:05:25;;;;;;;6.45;5.85;;;17.80;48.90;;;;;;5076828;28;20044;-61
2021/11/11 05:07:54;;;;;;;6.78;6.15;;;17.80;48.90;;;;;;5073809;28;20048;-60
2021/11/11 05:10:22;;;;;;;6.47;5.88;;;17.80;48.80;;;;;;5077084;28;20827;-60
2021/11/11 05:12:51;;;;;;;5.95;5.30;;;17.80;48.80;;;;;;5079667;28;20043;-60
2021/11/11 05:15:19;;;;;;;6.63;5.18;;;17.80;48.80;;;;;;5078727;28;20049;-60
2021/11/11 05:17:47;;;;;;;5.45;4.65;;;17.80;49.40;;;;;;5083860;28;20044;-59
2021/11/11 05:20:18;;;;;;;5.47;4.97;;;17.80;48.90;;;;;;5073672;28;20127;-60
2021/11/11 05:22:46;;;;;;;5.88;5.28;;;17.80;48.90;;;;;;5076921;28;20079;-60
2021/11/11 05:25:15;;;;;;;5.38;4.78;;;17.80;48.90;;;;;;5078504;28;20039;-60
2021/11/11 05:27:44;;;;;;;8.93;6.15;;;17.80;48.70;;;;;;5080292;28;20886;-61
2021/11/11 05:30:15;;;;;;;6.57;5.95;;;17.80;48.80;;;;;;5074990;28;20531;-60
2021/11/11 05:32:43;;;;;;;6.22;5.30;;;17.80;48.60;;;;;;5079691;28;20043;-61
2021/11/11 05:35:14;;;;;;;6.15;5.65;;;17.80;48.60;;;;;;5077553;28;20512;-60
2021/11/11 05:37:43;;;;;;;5.93;4.60;;;17.70;48.60;;;;;;5072602;28;20132;-60
2021/11/11 05:40:12;;;;;;;6.78;6.07;;;17.70;48.60;;;;;;5077183;28;20062;-60
2021/11/11 05:42:40;;;;;;;6.43;4.75;;;17.70;48.50;;;;;;5080920;28;20417;-60
2021/11/11 05:45:10;;;;;;;7.05;4.97;;;17.70;48.50;;;;;;5080166;28;20508;-60
2021/11/11 05:47:40;;;;;;;7.70;5.78;;;17.70;48.50;;;;;;5060726;28;20176;-63
2021/11/11 05:50:09;;;;;;;5.20;4.57;;;17.70;48.50;;;;;;5077014;28;20050;-63
2021/11/11 05:52:37;;;;;;;5.47;4.05;;;17.70;48.60;;;;;;5074695;28;20037;-63
2021/11/11 05:55:07;;;;;;;6.78;6.18;;;17.70;48.60;;;;;;5079897;28;20067;-62
2021/11/11 05:57:35;;;;;;;5.70;5.20;;;17.70;48.60;;;;;;5071759;28;20040;-62
2021/11/11 06:00:04;;;;;;;5.47;4.72;;;17.70;48.60;;;;;;5082492;28;20130;-62
2021/11/11 06:02:44;;;;;;;5.43;4.80;;;17.70;48.60;;;;;;5070502;28;20039;-62
2021/11/11 06:05:20;;;;;;;5.80;5.30;;;17.70;48.60;;;;;;5067404;28;20042;-61
2021/11/11 06:07:48;;;;;;;5.50;5.03;;;17.70;48.70;;;;;;5075249;28;20042;-62
2021/11/11 06:10:15;;;;;;;5.72;5.18;;;17.70;48.60;;;;;;5071499;28;20056;-62
2021/11/11 06:12:42;;;;;;;6.88;5.50;;;17.70;48.60;;;;;;5069853;28;20119;-61
2021/11/11 06:15:10;;;;;;;4.90;4.53;;;17.70;48.70;;;;;;5050820;28;20033;-61
2021/11/11 06:17:38;;;;;;;10.70;5.85;;;17.70;48.70;;;;;;5082656;28;20837;-61
2021/11/11 06:20:15;;;;;;;7.35;5.38;;;17.70;48.70;;;;;;5069555;28;20101;-62
2021/11/11 06:22:45;;;;;;;7.00;5.32;;;17.70;48.50;;;;;;5067072;28;20124;-61
2021/11/11 06:25:14;;;;;;;7.78;5.72;;;17.70;48.60;;;;;;5068428;28;20128;-61
2021/11/11 06:27:42;;;;;;;9.60;5.47;;;17.70;48.70;;;;;;5065424;28;20041;-62
2021/11/11 06:30:10;;;;;;;7.30;5.47;;;17.70;48.70;;;;;;5064588;28;20041;-62
2021/11/11 06:32:37;;;;;;;9.02;6.35;;;17.70;48.70;;;;;;5081749;28;20049;-61
2021/11/11 06:35:08;;;;;;;7.95;5.35;;;17.60;48.60;;;;;;5065550;28;20047;-61
2021/11/11 06:37:35;;;;;;;6.88;5.82;;;17.60;48.80;;;;;;5067885;28;20078;-61
2021/11/11 06:40:02;;;;;;;6.20;5.60;;;17.60;48.80;;;;;;5066316;28;20165;-60
2021/11/11 06:42:29;;;;;;;7.15;5.55;;;17.60;48.90;;;;;;5069183;28;20049;-60
2021/11/11 06:44:57;;;;;;;6.78;4.80;;;17.60;49.00;;;;;;5068413;28;20084;-61
2021/11/11 06:47:24;;;;;;;5.85;5.25;;;17.60;49.00;;;;;;5066161;28;20052;-61
2021/11/11 06:49:51;;;;;;;8.00;5.35;;;17.60;49.10;;;;;;5070288;28;20050;-61
2021/11/11 06:52:19;;;;;;;6.63;5.95;;;17.60;49.10;;;;;;5070270;28;20049;-60
2021/11/11 06:54:47;;;;;;;6.10;5.18;;;17.60;49.20;;;;;;5076822;28;20051;-60
2021/11/11 06:57:14;;;;;;;6.63;4.80;;;17.60;49.60;;;;;;5068933;28;20047;-59
2021/11/11 06:59:46;;;;;;;9.88;4.97;;;17.60;49.20;;;;;;5081296;28;20049;-61
2021/11/11 07:02:13;;;;;;;10.32;6.07;;;17.70;49.40;;;;;;5066532;28;20040;-66
2021/11/11 07:04:40;;;;;;;11.63;4.32;;;17.70;49.40;;;;;;5068302;28;20041;-61
2021/11/11 07:07:07;;;;;;;9.98;4.85;;;17.80;49.40;;;;;;5064863;28;20052;-59
2021/11/11 07:09:35;;;;;;;8.38;5.55;;;17.90;49.30;;;;;;5070998;28;20044;-61
2021/11/11 07:12:02;;;;;;;8.63;4.50;;;18.10;49.50;;;;;;5074428;28;20037;-53
2021/11/11 07:14:30;;;;;;;9.35;5.07;;;18.20;49.40;;;;;;5077625;28;20381;-54
2021/11/11 07:16:57;;;;;;;15.55;4.43;;;18.40;50.00;;;;;;5069454;28;20044;-52
2021/11/11 07:19:25;;;;;;;16.25;5.13;;;18.60;49.30;;;;;;5064938;28;20041;-53
2021/11/11 07:21:52;;;;;;;7.95;3.67;;;18.80;49.20;;;;;;5075549;28;20475;-42
2021/11/11 07:24:19;;;;;;;11.93;4.97;;;19.00;49.00;;;;;;5058148;28;20036;-59
2021/11/11 07:26:48;;;;;;;7.82;5.15;;;19.20;47.40;;;;;;5062134;28;20058;-57
2021/11/11 07:29:15;;;;;;;7.63;5.07;;;19.30;47.20;;;;;;5061575;28;20044;-67
2021/11/11 07:31:43;;;;;;;10.60;6.68;;;19.50;47.00;;;;;;5061039;28;20040;-57
2021/11/11 07:34:11;;;;;;;8.25;4.97;;;19.70;46.70;;;;;;5060000;28;20040;-68
2021/11/11 07:36:38;;;;;;;8.95;5.22;;;19.80;46.30;;;;;;5061595;28;20049;-57
2021/11/11 07:39:06;;;;;;;6.57;5.50;;;20.00;46.00;;;;;;5071087;28;20048;-59
2021/11/11 07:41:33;;;;;;;6.85;4.80;;;20.20;45.70;;;;;;5061689;28;20056;-63
2021/11/11 07:44:01;;;;;;;5.78;5.28;;;20.40;45.40;;;;;;5056931;28;20147;-56
2021/11/11 07:46:28;;;;;;;8.45;5.32;;;20.60;45.10;;;;;;5066171;28;20048;-58
2021/11/11 07:48:55;;;;;;;5.88;5.30;;;20.80;44.90;;;;;;5062255;28;20131;-54
2021/11/11 07:51:23;;;;;;;7.93;5.53;;;20.90;44.50;;;;;;5060015;28;20135;-54
2021/11/11 07:53:50;;;;;;;6.93;5.15;;;21.10;44.20;;;;;;5061736;28;20071;-54
2021/11/11 07:56:17;;;;;;;8.75;5.32;;;21.30;43.90;;;;;;5061107;28;20041;-57
2021/11/11 07:58:44;;;;;;;6.85;6.22;;;21.50;43.60;;;;;;5063391;28;20048;-53
2021/11/11 08:01:12;;;;;;;6.25;4.35;;;21.70;43.20;;;;;;5064559;28;20045;-55
2021/11/11 08:03:39;;;;;;;6.53;5.85;;;21.80;42.80;;;;;;5057372;28;20053;-56
2021/11/11 08:06:06;;;;;;;5.85;4.70;;;22.00;42.60;;;;;;5063063;28;20531;-56
2021/11/11 08:08:33;;;;;;;6.15;5.22;;;22.20;42.30;;;;;;5069112;28;20092;-64
2021/11/11 08:11:00;;;;;;;9.25;6.75;;;22.30;42.00;;;;;;5059913;28;20423;-62
2021/11/11 08:13:27;;;;;;;8.23;5.57;;;22.40;41.70;;;;;;5061725;28;20142;-67
2021/11/11 08:15:55;;;;;;;9.10;6.88;;;22.60;41.50;;;;;;5066452;28;20592;-62
2021/11/11 08:18:24;;;;;;;6.93;5.50;;;22.70;41.40;;;;;;5069735;28;20048;-58
2021/11/11 08:20:51;;;;;;;7.10;6.40;;;22.80;41.10;;;;;;5066545;28;20055;-49
2021/11/11 08:23:19;;;;;;;7.68;6.82;;;22.90;40.80;;;;;;5065652;28;20048;-49
2021/11/11 08:25:47;;;;;;;7.20;5.65;;;23.10;40.40;;;;;;5067136;28;20047;-48
2021/11/11 08:28:15;;;;;;;10.45;6.30;;;23.10;40.10;;;;;;5062710;28;20533;-51
2021/11/11 08:30:42;;;;;;;10.25;7.35;;;23.10;39.60;;;;;;5064932;28;20122;-50
2021/11/11 08:33:10;;;;;;;11.43;7.57;;;23.20;39.60;;;;;;5060247;28;20126;-54
2021/11/11 08:35:39;;;;;;;13.05;6.30;;;23.20;39.60;;;;;;5065681;28;20043;-48
2021/11/11 08:38:06;;;;;;;8.73;7.45;;;23.20;39.60;;;;;;5062878;28;20139;-64
2021/11/11 08:40:33;;;;;;;8.95;6.72;;;23.10;39.60;;;;;;5066095;28;20597;-66
2021/11/11 08:43:01;;;;;;;9.48;7.63;;;23.10;39.70;;;;;;5060411;28;20078;-54
2021/11/11 08:45:33;;;;;;;10.85;7.40;;;23.10;39.80;;;;;;5060017;28;20052;-52
2021/11/11 08:48:02;;;;;;;14.38;7.75;;;23.10;39.90;;;;;;5064915;28;20054;-56
2021/11/11 08:50:31;;;;;;;11.07;6.55;;;23.10;40.00;;;;;;5063819;28;20492;-58
2021/11/11 08:53:00;;;;;;;10.18;7.38;;;23.10;40.20;;;;;;5060314;28;20125;-55
2021/11/11 08:55:31;;;;;;;12.00;7.35;;;23.10;40.30;;;;;;5060804;28;20071;-52
2021/11/11 08:57:59;;;;;;;11.55;7.00;;;23.10;40.50;;;;;;5059141;28;20047;-58
2021/11/11 09:00:32;;;;;;;9.30;7.43;;;23.10;40.70;;;;;;5074397;28;20048;-57
2021/11/11 09:03:04;;;;;;;9.60;7.65;;;23.10;40.70;;;;;;5056635;28;20513;-57
2021/11/11 09:05:32;;;;;;;10.25;7.20;;;23.10;40.80;;;;;;5064412;28;20040;-56
2021/11/11 09:08:02;;;;;;;11.27;7.47;;;23.10;40.80;;;;;;5064417;28;20044;-57
2021/11/11 09:10:30;;;;;;;8.40;6.93;;;23.10;40.90;;;;;;5068100;28;20052;-61
2021/11/11 09:12:58;;;;;;;10.82;6.50;;;23.10;41.00;;;;;;5064714;28;20094;-50
2021/11/11 09:15:28;;;;;;;12.50;8.25;;;23.10;41.00;;;;;;5062101;28;20065;-72
2021/11/11 09:17:58;;;;;;;9.98;8.15;;;23.10;41.10;;;;;;5065842;28;20044;-74
2021/11/11 09:20:26;;;;;;;10.00;8.02;;;23.10;40.90;;;;;;5064271;28;20527;-69
2021/11/11 09:22:54;;;;;;;10.88;8.60;;;23.10;40.70;;;;;;5061309;28;20041;-69
2021/11/11 09:25:25;;;;;;;11.93;7.78;;;23.20;40.60;;;;;;5063913;28;20051;-71
2021/11/11 09:27:52;;;;;;;9.15;7.60;;;23.10;40.50;;;;;;5066368;28;20078;-66
2021/11/11 09:30:22;;;;;;;9.32;8.38;;;23.10;40.50;;;;;;5063119;28;20114;-70
2021/11/11 09:32:49;;;;;;;10.32;8.93;;;23.10;40.50;;;;;;5061992;28;20044;-73
2021/11/11 09:35:16;;;;;;;8.90;8.00;;;23.20;40.60;;;;;;5065158;28;20078;-74
2021/11/11 09:37:45;;;;;;;10.85;8.85;;;23.20;40.60;;;;;;5057394;28;20051;-74
2021/11/11 09:40:16;;;;;;;10.20;7.82;;;23.30;40.70;;;;;;5059310;28;20528;-58
2021/11/11 09:42:45;;;;;;;12.27;9.52;;;23.30;40.70;;;;;;5059219;28;20819;-53
2021/11/11 09:45:14;;;;;;;12.48;8.27;;;23.40;40.60;;;;;;5064101;28;20416;-47
2021/11/11 09:47:42;;;;;;;14.63;9.52;;;23.40;40.50;;;;;;5067255;28;20055;-46
2021/11/11 09:50:10;;;;;;;21.75;10.20;;;23.50;40.30;;;;;;5066163;28;20627;-44
2021/11/11 09:52:39;;;;;;;13.90;8.00;;;23.50;40.40;;;;;;5068956;28;20876;-47
2021/11/11 10:00:40;;;;;;;14.63;9.60;;;23.40;41.30;;;;;;4978200;28;20053;-50
2021/11/11 10:03:07;;;;;;;14.63;8.95;;;23.30;41.50;;;;;;4991078;28;20053;-49
2021/11/11 10:05:35;;;;;;;16.05;9.02;;;23.20;41.70;;;;;;4998699;28;20091;-48
2021/11/11 10:08:03;;;;;;;16.52;9.80;;;23.10;41.90;;;;;;4988580;28;20062;-55
2021/11/11 10:10:34;;;;;;;18.33;9.70;;;23.00;41.60;;;;;;4988629;28;20418;-55
2021/11/11 10:13:15;;;;;;;14.70;8.88;;;22.90;41.60;;;;;;4992629;28;20075;-53
2021/11/11 10:16:08;;;;;;;13.25;9.32;;;22.70;41.60;;;;;;4990165;28;20177;-52
2021/11/11 10:18:46;;;;;;;15.63;9.65;;;22.60;41.90;;;;;;4987455;28;20059;-52
2021/11/11 10:21:33;;;;;;;17.85;10.70;;;22.40;42.10;;;;;;4997392;28;20052;-56
2021/11/11 10:24:15;;;;;;;14.75;12.05;;;22.30;42.30;;;;;;5000206;28;20046;-55
2021/11/11 10:26:48;;;;;;;20.95;10.23;;;22.20;42.50;;;;;;4993614;28;20052;-52
2021/11/11 10:29:23;;;;;;;13.10;9.93;;;22.00;42.80;;;;;;4991738;28;20501;-55
2021/11/11 10:31:54;;;;;;;17.58;9.98;;;22.00;43.00;;;;;;4987097;28;20064;-50
2021/11/11 10:34:22;;;;;;;18.38;10.73;;;21.90;43.10;;;;;;5009120;28;20051;-54
2021/11/11 10:36:51;;;;;;;19.80;11.77;;;21.80;43.20;;;;;;5077290;28;20036;-56
2021/11/11 10:39:21;;;;;;;13.35;9.25;;;21.80;43.30;;;;;;5078123;28;20055;-55
2021/11/11 10:41:49;;;;;;;13.02;8.95;;;21.70;43.40;;;;;;5079904;28;20048;-54
2021/11/11 10:44:26;;;;;;;21.08;11.93;;;21.60;43.50;;;;;;5075632;28;20098;-52
2021/11/11 10:46:56;;;;;;;19.30;11.27;;;21.60;43.50;;;;;;5074059;28;20040;-54
2021/11/11 10:49:30;;;;;;;14.38;10.95;;;21.50;43.40;;;;;;5068606;28;20048;-53
2021/11/11 10:52:20;;;;;;;17.90;10.93;;;21.50;43.40;;;;;;5080314;28;20063;-53
2021/11/11 10:55:07;;;;;;;20.50;11.23;;;21.50;43.50;;;;;;5067370;28;20071;-52
2021/11/11 10:57:37;;;;;;;17.33;9.93;;;21.50;43.60;;;;;;5075734;28;20216;-52
2021/11/11 11:00:26;;;;;;;16.63;10.77;;;21.40;43.70;;;;;;5077988;28;20055;-53
2021/11/11 11:03:00;;;;;;;17.58;12.07;;;21.40;43.70;;;;;;5073142;28;20420;-54
2021/11/11 11:05:30;;;;;;;17.90;10.70;;;21.40;44.00;;;;;;5075952;28;20122;-51
2021/11/11 11:08:07;;;;;;;15.60;10.32;;;21.40;44.00;;;;;;5070815;28;20075;-52
2021/11/11 11:10:36;;;;;;;19.98;10.27;;;21.40;44.00;;;;;;5072217;28;20054;-56
2021/11/11 11:13:10;;;;;;;20.17;10.82;;;21.40;44.10;;;;;;5070838;28;20428;-52
2021/11/11 11:15:46;;;;;;;17.00;10.07;;;21.40;44.10;;;;;;5075829;28;20045;-55
2021/11/11 11:18:14;;;;;;;15.93;9.38;;;21.40;44.40;;;;;;5072817;28;20127;-53
2021/11/11 11:20:42;;;;;;;15.35;9.55;;;21.50;44.60;;;;;;5076939;28;20059;-53
2021/11/11 11:23:21;;;;;;;17.13;9.75;;;21.50;44.60;;;;;;5071749;28;20598;-53
2021/11/11 11:25:54;;;;;;;15.20;9.00;;;21.50;44.60;;;;;;5065452;28;20040;-55
2021/11/11 11:28:31;;;;;;;17.67;9.65;;;21.60;44.50;;;;;;5070839;28;20044;-55
2021/11/11 11:31:01;;;;;;;17.92;10.02;;;21.60;44.40;;;;;;5077995;28;20147;-55
2021/11/11 11:33:38;;;;;;;22.67;10.32;;;21.60;44.30;;;;;;5078952;28;20051;-51
2021/11/11 11:36:05;;;;;;;15.88;8.45;;;21.70;44.30;;;;;;5083019;28;20044;-52
2021/11/11 11:38:38;;;;;;;14.40;9.98;;;21.70;44.20;;;;;;5077895;28;20464;-55
2021/11/11 11:41:22;;;;;;;17.20;8.93;;;21.70;44.10;;;;;;5076515;28;20077;-53
2021/11/11 11:43:50;;;;;;;19.92;10.20;;;21.70;44.00;;;;;;5069643;28;20424;-52
2021/11/11 11:46:23;;;;;;;14.60;8.48;;;21.80;44.00;;;;;;5078318;28;20043;-54
2021/11/11 11:48:50;;;;;;;16.83;10.57;;;21.80;43.90;;;;;;5078525;28;20053;-53
2021/11/11 11:51:20;;;;;;;20.98;10.25;;;21.80;43.80;;;;;;5079806;28;20033;-52
2021/11/11 11:53:50;;;;;;;12.15;8.90;;;21.90;43.80;;;;;;5085302;28;20449;-55
2021/11/11 11:56:25;;;;;;;16.88;9.30;;;21.90;43.70;;;;;;5079126;28;20135;-53
2021/11/11 11:58:57;;;;;;;11.45;9.25;;;21.90;43.70;;;;;;5072782;28;20504;-52
2021/11/11 12:04:20;;;;;;;13.07;8.88;;;22.00;43.50;;;;;;5074436;28;20181;-53
2021/11/11 12:07:13;;;;;;;11.55;8.48;;;22.00;43.40;;;;;;5068551;28;20120;-51
2021/11/11 12:09:44;;;;;;;11.77;7.00;;;22.10;43.40;;;;;;5077568;28;20036;-54
2021/11/11 12:12:41;;;;;;;13.65;9.07;;;22.10;43.30;;;;;;5081163;28;20040;-53
2021/11/11 12:15:23;;;;;;;15.18;7.93;;;22.10;43.20;;;;;;5080580;28;20051;-53
2021/11/11 12:30:13;;;;;;;11.30;7.43;;;22.20;43.00;;;;;;5084292;28;20086;-54
2021/11/11 12:38:34;;;;;;;12.23;7.85;;;22.20;42.80;;;;;;5072582;28;20054;-52
2021/11/11 12:41:08;;;;;;;11.80;7.82;;;22.30;42.80;;;;;;5075045;28;20040;-54
2021/11/11 12:43:36;;;;;;;11.50;7.50;;;22.30;42.70;;;;;;5066281;28;20032;-55
2021/11/11 12:46:03;;;;;;;11.32;7.60;;;22.30;42.70;;;;;;5076876;28;20527;-52
2021/11/11 12:48:31;;;;;;;10.10;7.13;;;22.30;42.70;;;;;;5078356;28;20048;-52
2021/11/11 12:51:07;;;;;;;13.25;7.32;;;22.40;42.70;;;;;;5078249;28;20055;-52
2021/11/11 12:53:46;;;;;;;12.10;8.00;;;22.40;42.60;;;;;;5076529;28;20037;-56
2021/11/11 12:56:23;;;;;;;12.30;8.30;;;22.40;42.60;;;;;;5073840;28;20040;-55
2021/11/11 12:58:58;;;;;;;11.00;7.20;;;22.40;42.50;;;;;;5073810;28;20125;-55
2021/11/11 13:01:28;;;;;;;9.45;7.45;;;22.40;42.50;;;;;;5075395;28;20067;-55
2021/11/11 13:03:58;;;;;;;12.63;7.65;;;22.40;42.40;;;;;;5074128;28;20055;-55
2021/11/11 13:06:41;;;;;;;8.93;6.55;;;22.50;42.40;;;;;;5076507;28;20029;-54
2021/11/11 13:09:21;;;;;;;12.25;8.60;;;22.50;42.30;;;;;;5081405;28;20043;-52
2021/11/11 13:11:52;;;;;;;9.50;7.78;;;22.50;42.30;;;;;;5076363;28;20123;-51
2021/11/11 13:14:21;;;;;;;14.05;8.50;;;22.50;42.30;;;;;;5067603;28;20496;-55
2021/11/11 13:17:12;;;;;;;12.77;7.85;;;22.50;42.30;;;;;;5070942;28;20493;-54
2021/11/11 13:19:41;;;;;;;10.98;7.75;;;22.50;42.10;;;;;;5072024;28;20047;-52
2021/11/11 13:22:13;;;;;;;11.27;7.88;;;22.50;42.20;;;;;;5078239;28;20048;-52
2021/11/11 13:28:17;;;;;;;10.23;6.93;;;22.60;42.20;;;;;;5045192;28;20048;-54
2021/11/11 13:59:27;;;;;;;10.50;7.40;;;22.70;41.90;;;;;;5074802;28;20040;-56
2021/11/11 14:28:06;;;;;;;8.00;6.65;;;22.90;41.60;;;;;;5074422;28;20043;-52
2021/11/11 15:19:27;;;;;;;9.27;6.40;;;22.30;39.80;;;;;;4932238;29;20054;-56
2021/11/11 16:01:17;;;;;;;5.07;4.32;;;21.30;41.60;;;;;;4919083;28;20506;-55
2021/11/11 16:20:15;;;;;;;6.97;5.18;;;20.90;42.40;;;;;;4975183;28;20748;-55
2021/11/11 16:23:01;;;;;;;5.88;5.38;;;20.80;42.40;;;;;;4972515;28;20065;-54